^^
Grace C. Lehan Memorial Weather Station Historical Data
Daily Summary for February 28, 2021 Units:  English    Metric   Both
Daily Weekly Monthly Yearly
  High: Low: Average:
Temperature: 96.5 °F 71.9 °F 85 °F
Dew Point: 79.1 °F 69.4 °F 74.1 °F
Humidity: 93% 50.4% 72%
Wind Speed: 3.9mph 0mph 0.8mph
Wind Gust: 13mph - -
Wind- - WSW
Pressure: 30.15 in 30.08 in -
Precipitation: 0.00 in    
 
 
Tabular Data for February 28, 2021
Time Temperature Dew Point Pressure Wind Wind Speed Wind Gust Humidity Rainfall Rate (Hourly) solar
00:04 75.2 °F 70 °F 30.09 in Calm     84% 0.00 in 0 W/m2
00:09 75.2 °F 70 °F 30.09 in WSW 0.1 mph 2 mph 84% 0.00 in 0 W/m2
00:14 75.1 °F 69.9 °F 30.09 in Calm   2 mph 84% 0.00 in 0 W/m2
00:19 75 °F 69.9 °F 30.09 in Calm   2 mph 84% 0.00 in 0 W/m2
00:24 75 °F 69.9 °F 30.08 in WSW 0.1 mph 2 mph 84.2% 0.00 in 0 W/m2
00:29 75 °F 70.2 °F 30.09 in Calm   2 mph 85% 0.00 in 0 W/m2
00:34 75 °F 70.1 °F 30.09 in WSW 0.1 mph 2 mph 85% 0.00 in 0 W/m2
00:39 74.9 °F 70.1 °F 30.09 in Calm   2 mph 85% 0.00 in 0 W/m2
00:44 74.8 °F 70 °F 30.09 in Calm   2 mph 85% 0.00 in 0 W/m2
00:49 74.7 °F 69.9 °F 30.09 in Calm   2 mph 85% 0.00 in 0 W/m2
00:54 74.6 °F 69.8 °F 30.09 in Calm   2 mph 85% 0.00 in 0 W/m2
00:59 74.5 °F 69.7 °F 30.09 in Calm   2 mph 85% 0.00 in 0 W/m2
01:04 74.4 °F 69.9 °F 30.09 in Calm   2 mph 85.9% 0.00 in 0 W/m2
01:09 74.4 °F 69.9 °F 30.09 in Calm     86% 0.00 in 0 W/m2
01:14 74.4 °F 69.9 °F 30.09 in Calm     86% 0.00 in 0 W/m2
01:19 74.4 °F 69.9 °F 30.10 in Calm     86% 0.00 in 0 W/m2
01:24 74.4 °F 69.9 °F 30.09 in Calm     86% 0.00 in 0 W/m2
01:29 74.3 °F 69.9 °F 30.10 in Calm     86.2% 0.00 in 0 W/m2
01:34 74.2 °F 70.1 °F 30.10 in Calm     86.9% 0.00 in 0 W/m2
01:39 74.2 °F 70.1 °F 30.10 in Calm     87% 0.00 in 0 W/m2
01:44 74.1 °F 70 °F 30.10 in Calm     87% 0.00 in 0 W/m2
01:49 74 °F 69.9 °F 30.10 in Calm     87% 0.00 in 0 W/m2
01:54 73.9 °F 69.9 °F 30.10 in Calm     87.4% 0.00 in 0 W/m2
01:59 73.9 °F 70 °F 30.10 in Calm     87.6% 0.00 in 0 W/m2
02:04 73.9 °F 70.1 °F 30.10 in Calm     88% 0.00 in 0 W/m2
02:09 73.8 °F 70 °F 30.10 in Calm     88% 0.00 in 0 W/m2
02:14 73.8 °F 70 °F 30.10 in Calm     88% 0.00 in 0 W/m2
02:19 73.7 °F 70 °F 30.10 in Calm     88% 0.00 in 0 W/m2
02:24 73.7 °F 69.9 °F 30.10 in Calm     88% 0.00 in 0 W/m2
02:29 73.7 °F 69.9 °F 30.10 in Calm     88% 0.00 in 0 W/m2
02:34 73.6 °F 69.8 °F 30.10 in Calm     88% 0.00 in 0 W/m2
02:39 73.5 °F 69.7 °F 30.10 in Calm   1 mph 88% 0.00 in 0 W/m2
02:41 73.5 °F 69.7 °F 30.10 in Calm   1 mph 88% 0.00 in 0 W/m2
03:00 73.2 °F 69.8 °F 30.11 in Calm   2 mph 89% 0.00 in 0 W/m2
03:30 72.9 °F 69.8 °F 30.11 in Calm   2 mph 90% 0.00 in 0 W/m2
04:03 72.6 °F 69.5 °F 30.12 in Calm     90% 0.00 in 0 W/m2
04:09 72.6 °F 69.8 °F 30.12 in Calm     91% 0.00 in 0 W/m2
04:14 72.5 °F 69.7 °F 30.12 in Calm     91% 0.00 in 0 W/m2
04:19 72.5 °F 69.7 °F 30.12 in Calm     91% 0.00 in 0 W/m2
04:24 72.4 °F 69.7 °F 30.12 in Calm     91% 0.00 in 0 W/m2
04:29 72.4 °F 69.6 °F 30.12 in Calm     91% 0.00 in 0 W/m2
04:34 72.3 °F 69.6 °F 30.12 in Calm     91% 0.00 in 0 W/m2
04:39 72.3 °F 69.5 °F 30.12 in Calm     91% 0.00 in 0 W/m2
04:44 72.2 °F 69.4 °F 30.12 in Calm     91% 0.00 in 0 W/m2
04:49 72.2 °F 69.4 °F 30.13 in Calm     91% 0.00 in 0 W/m2
04:54 72.2 °F 69.5 °F 30.13 in Calm     91.4% 0.00 in 0 W/m2
04:59 72.1 °F 69.7 °F 30.13 in Calm     92% 0.00 in 0 W/m2
05:04 72.1 °F 69.7 °F 30.13 in Calm     92% 0.00 in 0 W/m2
05:09 72.1 °F 69.6 °F 30.13 in Calm     92% 0.00 in 0 W/m2
05:14 72 °F 69.6 °F 30.13 in Calm     92% 0.00 in 0 W/m2
05:19 72 °F 69.6 °F 30.13 in Calm     92% 0.00 in 0 W/m2
05:24 72 °F 69.5 °F 30.13 in Calm     92% 0.00 in 0 W/m2
05:29 71.9 °F 69.5 °F 30.14 in Calm     92% 0.00 in 5 W/m2
05:34 71.9 °F 69.4 °F 30.14 in Calm     92% 0.00 in 7 W/m2
05:39 71.9 °F 69.4 °F 30.14 in Calm     92% 0.00 in 12 W/m2
05:44 71.9 °F 69.4 °F 30.14 in Calm     92% 0.00 in 16 W/m2
05:49 71.9 °F 69.4 °F 30.14 in Calm     92% 0.00 in 18 W/m2
05:54 71.9 °F 69.4 °F 30.14 in Calm     92% 0.00 in 23 W/m2
05:59 71.9 °F 69.4 °F 30.14 in Calm     92% 0.00 in 28 W/m2
06:04 72 °F 69.5 °F 30.14 in Calm     92% 0.00 in 32 W/m2
06:09 72.1 °F 69.9 °F 30.14 in Calm     92.9% 0.00 in 32 W/m2
06:14 72.2 °F 70 °F 30.14 in Calm     93% 0.00 in 35 W/m2
06:19 72.3 °F 70.1 °F 30.14 in Calm     93% 0.00 in 40 W/m2
06:24 72.4 °F 70.3 °F 30.14 in Calm     93% 0.00 in 46 W/m2
06:29 72.6 °F 70.2 °F 30.14 in Calm     92.1% 0.00 in 63 W/m2
06:34 72.8 °F 70.4 °F 30.14 in Calm     92% 0.00 in 81 W/m2
06:39 73.1 °F 70.6 °F 30.14 in Calm     92% 0.00 in 86 W/m2
06:44 73.4 °F 71 °F 30.14 in Calm     92% 0.00 in 83 W/m2
06:49 73.9 °F 71.3 °F 30.14 in Calm     91.5% 0.00 in 86 W/m2
06:54 74.4 °F 71.5 °F 30.15 in Calm     90.7% 0.00 in 86 W/m2
06:59 75 °F 71.8 °F 30.15 in Calm     89.8% 0.00 in 91 W/m2
07:04 75.7 °F 72.1 °F 30.15 in Calm     88.8% 0.00 in 91 W/m2
07:09 76.3 °F 72.2 °F 30.15 in Calm     87.3% 0.00 in 86 W/m2
07:14 76.8 °F 72.3 °F 30.15 in Calm     85.9% 0.00 in 84 W/m2
07:19 77.2 °F 72.3 °F 30.14 in Calm     85% 0.00 in 88 W/m2
07:24 77.6 °F 72.4 °F 30.14 in Calm     84.1% 0.00 in 127 W/m2
07:29 78 °F 72.8 °F 30.14 in Calm   1 mph 84% 0.00 in 290 W/m2
07:34 78.4 °F 72.9 °F 30.14 in Calm   1 mph 83.2% 0.00 in 304 W/m2
07:39 79 °F 73.1 °F 30.15 in Calm     82.2% 0.00 in 304 W/m2
07:44 79.6 °F 73.5 °F 30.15 in Calm   1 mph 81.8% 0.00 in 306 W/m2
07:49 80.2 °F 73.8 °F 30.15 in Calm   1 mph 81% 0.00 in 325 W/m2
07:54 80.8 °F 73.9 °F 30.15 in Calm   1 mph 79.8% 0.00 in 338 W/m2
07:59 81.3 °F 74.1 °F 30.15 in Calm   1 mph 79% 0.00 in 336 W/m2
08:04 82 °F 74.5 °F 30.15 in Calm     78% 0.00 in 360 W/m2
08:09 82.2 °F 74.8 °F 30.15 in WSW 0.1 mph 3 mph 78.2% 0.00 in 359 W/m2
08:14 82.7 °F 74.7 °F 30.15 in Calm   3 mph 76.8% 0.00 in 288 W/m2
08:19 82.9 °F 74.8 °F 30.15 in WSW 0.4 mph 7 mph 76.5% 0.00 in 450 W/m2
08:24 83.4 °F 75.6 °F 30.15 in SW 1.2 mph 7 mph 77.3% 0.00 in 473 W/m2
08:29 84 °F 75.3 °F 30.15 in SW 0.5 mph 7 mph 75.2% 0.00 in 501 W/m2
08:34 84.6 °F 75.9 °F 30.15 in SW 0.2 mph 7 mph 75.3% 0.00 in 526 W/m2
08:39 85.3 °F 76.1 °F 30.15 in SW 0.2 mph 5 mph 74.2% 0.00 in 552 W/m2
08:44 86 °F 76 °F 30.15 in SW 0.1 mph 5 mph 72.2% 0.00 in 552 W/m2
08:49 86.4 °F 76.1 °F 30.15 in SW 0.8 mph 5 mph 71.4% 0.00 in 424 W/m2
08:54 86.6 °F 76 °F 30.15 in SW 0.4 mph 5 mph 70.8% 0.00 in 411 W/m2
08:59 86.5 °F 75.9 °F 30.15 in SW 0.7 mph 6 mph 70.9% 0.00 in 520 W/m2
09:04 86.4 °F 76.1 °F 30.14 in SW 0.2 mph 6 mph 71.5% 0.00 in 450 W/m2
09:09 86.5 °F 76.3 °F 30.15 in SW 0.2 mph 4 mph 71.7% 0.00 in 406 W/m2
09:14 86.3 °F 75.8 °F 30.15 in SW 0.1 mph 4 mph 70.9% 0.00 in 357 W/m2
09:19 86.1 °F 75.8 °F 30.15 in SW 0.8 mph 6 mph 71.4% 0.00 in 378 W/m2
09:24 85.9 °F 75.8 °F 30.15 in Calm   6 mph 71.8% 0.00 in 373 W/m2
09:29 85.9 °F 75.7 °F 30.14 in Calm   6 mph 71.8% 0.00 in 601 W/m2
09:34 85.9 °F 76.2 °F 30.14 in WSW 1.4 mph 9 mph 73% 0.00 in 788 W/m2
09:39 86.6 °F 76.4 °F 30.14 in WSW 2.2 mph 9 mph 71.8% 0.00 in 768 W/m2
09:44 87.3 °F 76.4 °F 30.14 in WSW 2.9 mph 10 mph 70.2% 0.00 in 773 W/m2
09:49 87.9 °F 76.8 °F 30.14 in WSW 0.5 mph 10 mph 69.7% 0.00 in 687 W/m2
09:54 88.3 °F 76.8 °F 30.14 in WSW 0.2 mph 10 mph 68.9% 0.00 in 668 W/m2
09:59 88.5 °F 76.5 °F 30.14 in WSW 0.9 mph 10 mph 67.8% 0.00 in 608 W/m2
10:04 88.4 °F 76.6 °F 30.14 in WSW 1.2 mph 10 mph 68.2% 0.00 in 506 W/m2
10:09 88.2 °F 76.6 °F 30.14 in WSW 1.8 mph 6 mph 68.7% 0.00 in 587 W/m2
10:14 88 °F 76.3 °F 30.14 in WSW 0.4 mph 6 mph 68.5% 0.00 in 691 W/m2
10:19 87.9 °F 76.6 °F 30.14 in WSW 0.7 mph 6 mph 69.3% 0.00 in 773 W/m2
10:24 88.2 °F 77.2 °F 30.14 in WSW 0.5 mph 6 mph 70% 0.00 in 795 W/m2
10:29 88.7 °F 77.2 °F 30.14 in WSW 1.1 mph 7 mph 69.1% 0.00 in 819 W/m2
10:34 89.3 °F 77.3 °F 30.14 in WSW 1.3 mph 7 mph 67.8% 0.00 in 851 W/m2
10:39 90 °F 78.1 °F 30.14 in WSW 0.8 mph 6 mph 68.1% 0.00 in 867 W/m2
10:44 90.7 °F 77.8 °F 30.14 in WSW 1.2 mph 6 mph 66.1% 0.00 in 868 W/m2
10:49 91.2 °F 78.6 °F 30.14 in WSW 1.2 mph 6 mph 66.8% 0.00 in 874 W/m2
10:54 91.7 °F 78.1 °F 30.14 in WSW 1.5 mph 7 mph 64.8% 0.00 in 874 W/m2
10:59 92 °F 78.1 °F 30.14 in WSW 1.4 mph 7 mph 64.1% 0.00 in 863 W/m2
11:04 92.4 °F 78.3 °F 30.14 in WSW 0.8 mph 7 mph 63.5% 0.00 in 854 W/m2
11:09 92.8 °F 78 °F 30.13 in WSW 0.8 mph 4 mph 62.3% 0.00 in 858 W/m2
11:14 92.7 °F 77.8 °F 30.13 in WSW 1 mph 4 mph 62% 0.00 in 847 W/m2
11:19 92.8 °F 78.2 °F 30.13 in WSW 1.5 mph 5 mph 62.7% 0.00 in 867 W/m2
11:24 93 °F 78.3 °F 30.13 in SW 1.5 mph 5 mph 62.5% 0.00 in 907 W/m2
11:29 93.4 °F 78.6 °F 30.13 in WSW 1.9 mph 5 mph 62.4% 0.00 in 919 W/m2
11:34 93.9 °F 79.1 °F 30.14 in WSW 0.1 mph 5 mph 62.3% 0.00 in 921 W/m2
11:39 94.5 °F 78.2 °F 30.14 in WSW 0.9 mph 4 mph 59.5% 0.00 in 937 W/m2
11:44 94.7 °F 78.6 °F 30.14 in WSW 1 mph 4 mph 59.9% 0.00 in 937 W/m2
11:49 94.6 °F 78.9 °F 30.13 in WSW 1.6 mph 5 mph 60.7% 0.00 in 1016 W/m2
11:54 94.3 °F 77.9 °F 30.13 in WSW 1.2 mph 5 mph 59.3% 0.00 in 1016 W/m2
11:59 94.1 °F 78.2 °F 30.13 in WSW 1.1 mph 5 mph 60.3% 0.00 in 1016 W/m2
12:00 94 °F 78 °F 30.13 in Calm   5 mph 60% 0.00 in 981 W/m2
12:09 93.8 °F 77.6 °F 30.13 in WSW 0.5 mph 3 mph 59.7% 0.00 in 1021 W/m2
12:14 93.8 °F 78.6 °F 30.13 in WSW 0.9 mph 5 mph 61.5% 0.00 in 1021 W/m2
12:19 93.9 °F 78 °F 30.13 in WSW 1 mph 5 mph 60.2% 0.00 in 937 W/m2
12:24 93.6 °F 77.5 °F 30.12 in WSW 1.8 mph 5 mph 59.6% 0.00 in 949 W/m2
12:29 93.5 °F 78 °F 30.12 in WSW 1.1 mph 7 mph 60.9% 0.00 in 949 W/m2
12:34 93.9 °F 78.7 °F 30.12 in WSW 1.9 mph 7 mph 61.6% 0.00 in 939 W/m2
12:39 94.5 °F 78 °F 30.12 in West 2.5 mph 7 mph 59.1% 0.00 in 944 W/m2
12:44 94.8 °F 77.7 °F 30.12 in SW 2.8 mph 10 mph 58% 0.00 in 933 W/m2
12:49 94.9 °F 77.8 °F 30.12 in WSW 3.3 mph 10 mph 58% 0.00 in 911 W/m2
12:54 95 °F 77.1 °F 30.12 in WSW 3.9 mph 13 mph 56.6% 0.00 in 932 W/m2
12:59 95 °F 77.4 °F 30.12 in WSW 2.6 mph 13 mph 57% 0.00 in 933 W/m2
13:04 95.1 °F 77.1 °F 30.11 in SW 2.2 mph 13 mph 56.3% 0.00 in 944 W/m2
13:09 95 °F 77.4 °F 30.11 in SW 1.9 mph 6 mph 57% 0.00 in 963 W/m2
13:14 95.1 °F 77.2 °F 30.11 in SSW 1.7 mph 6 mph 56.4% 0.00 in 983 W/m2
13:19 95.3 °F 77.2 °F 30.11 in SW 2.8 mph 9 mph 56.2% 0.00 in 981 W/m2
13:24 95.7 °F 77.2 °F 30.11 in WSW 1.7 mph 9 mph 55.5% 0.00 in 998 W/m2
13:29 95.9 °F 77.2 °F 30.11 in WSW 3 mph 9 mph 55.2% 0.00 in 976 W/m2
13:34 96 °F 77.2 °F 30.11 in WSW 2.7 mph 9 mph 55% 0.00 in 974 W/m2
13:39 96.1 °F 76.8 °F 30.11 in WSW 3 mph 10 mph 54.2% 0.00 in 974 W/m2
13:44 96.1 °F 76.2 °F 30.11 in WSW 2.9 mph 10 mph 53.1% 0.00 in 816 W/m2
13:49 96 °F 76.2 °F 30.11 in WSW 2 mph 10 mph 53.1% 0.00 in 863 W/m2
13:54 96 °F 77 °F 30.11 in WSW 1.2 mph 10 mph 54.7% 0.00 in 856 W/m2
13:59 95.7 °F 76.3 °F 30.11 in SW 2 mph 10 mph 53.8% 0.00 in 912 W/m2
14:04 95.5 °F 76.3 °F 30.11 in SW 0.9 mph 10 mph 54.2% 0.00 in 918 W/m2
14:09 95.6 °F 77.1 °F 30.11 in WSW 2.3 mph 9 mph 55.6% 0.00 in 962 W/m2
14:14 95.8 °F 76.9 °F 30.11 in West 1.9 mph 9 mph 54.8% 0.00 in 962 W/m2
14:19 95.8 °F 75.9 °F 30.11 in WSW 1.6 mph 9 mph 53% 0.00 in 923 W/m2
14:24 95.8 °F 77.2 °F 30.11 in West 1.7 mph 9 mph 55.3% 0.00 in 923 W/m2
14:29 96.1 °F 76.4 °F 30.11 in SW 2.5 mph 9 mph 53.3% 0.00 in 805 W/m2
14:34 96.2 °F 76 °F 30.11 in WSW 2 mph 9 mph 52.5% 0.00 in 650 W/m2
14:39 96.1 °F 76.8 °F 30.11 in WSW 1.7 mph 7 mph 54% 0.00 in 853 W/m2
14:44 96.2 °F 77 °F 30.10 in West 1.3 mph 7 mph 54.2% 0.00 in 872 W/m2
14:49 96.4 °F 76.2 °F 30.10 in WSW 2.3 mph 7 mph 52.5% 0.00 in 802 W/m2
14:54 96.5 °F 75.9 °F 30.10 in West 1.8 mph 7 mph 51.9% 0.00 in 740 W/m2
14:59 96.4 °F 76.6 °F 30.10 in West 2.4 mph 7 mph 53.2% 0.00 in 740 W/m2
15:04 96.2 °F 75.8 °F 30.10 in WSW 2.9 mph 10 mph 52.2% 0.00 in 679 W/m2
15:09 95.8 °F 75.2 °F 30.10 in SW 2.8 mph 10 mph 51.8% 0.00 in 541 W/m2
15:14 95.5 °F 75.5 °F 30.10 in SW 1.9 mph 10 mph 52.8% 0.00 in 608 W/m2
15:19 95.4 °F 75.2 °F 30.10 in SW 2.7 mph 10 mph 52.3% 0.00 in 722 W/m2
15:24 95.4 °F 74.4 °F 30.10 in SW 3.1 mph 10 mph 51% 0.00 in 733 W/m2
15:29 95.4 °F 75.1 °F 30.10 in SW 2.1 mph 10 mph 52.1% 0.00 in 698 W/m2
15:34 95.5 °F 75 °F 30.10 in WSW 1.9 mph 10 mph 51.8% 0.00 in 629 W/m2
15:39 95.6 °F 75.8 °F 30.10 in West 2.4 mph 10 mph 53.1% 0.00 in 733 W/m2
15:44 95.7 °F 74.9 °F 30.10 in WSW 2.2 mph 10 mph 51.4% 0.00 in 726 W/m2
15:49 95.7 °F 75 °F 30.10 in SW 2.1 mph 10 mph 51.4% 0.00 in 726 W/m2
15:54 95.6 °F 75.6 °F 30.09 in WSW 1.7 mph 10 mph 52.7% 0.00 in 671 W/m2
15:59 95.8 °F 75.3 °F 30.09 in WSW 2.7 mph 10 mph 52% 0.00 in 708 W/m2
16:00 95.9 °F 74.9 °F 30.09 in SW 2.5 mph 10 mph 51% 0.00 in 689 W/m2
16:09 96.3 °F 75.7 °F 30.09 in West 0.9 mph 4 mph 51.8% 0.00 in 693 W/m2
16:14 96.3 °F 75.9 °F 30.09 in West 1.1 mph 6 mph 52.2% 0.00 in 701 W/m2
16:19 96.2 °F 75 °F 30.09 in SW 3.2 mph 11 mph 50.7% 0.00 in 671 W/m2
16:24 95.9 °F 74.5 °F 30.09 in WSW 2.1 mph 11 mph 50.4% 0.00 in 67 W/m2
16:29 95.6 °F 74.8 °F 30.09 in WSW 2.8 mph 12 mph 51.3% 0.00 in 77 W/m2
16:34 95.4 °F 74.8 °F 30.09 in WSW 0.6 mph 12 mph 51.7% 0.00 in 74 W/m2
16:39 95.3 °F 75.2 °F 30.08 in WSW 2.4 mph 9 mph 52.5% 0.00 in 62 W/m2
16:44 95.2 °F 75 °F 30.08 in WSW 1.6 mph 9 mph 52.3% 0.00 in 62 W/m2
16:49 95.1 °F 74.5 °F 30.08 in WSW 1.8 mph 9 mph 51.7% 0.00 in 72 W/m2
16:54 95.1 °F 74.5 °F 30.08 in West 1.8 mph 9 mph 51.6% 0.00 in 69 W/m2
16:59 95 °F 74.6 °F 30.08 in WSW 3.8 mph 12 mph 52% 0.00 in 54 W/m2
17:04 94.9 °F 73.7 °F 30.08 in WSW 2.9 mph 12 mph 50.6% 0.00 in 67 W/m2
17:09 94.8 °F 73.6 °F 30.08 in WSW 2.2 mph 12 mph 50.6% 0.00 in 70 W/m2
17:14 94.7 °F 74.2 °F 30.08 in WSW 2.6 mph 12 mph 51.7% 0.00 in 51 W/m2
17:19 94.7 °F 74.5 °F 30.08 in SW 2.1 mph 12 mph 52.3% 0.00 in 53 W/m2
17:24 94.5 °F 74.2 °F 30.08 in WSW 3.1 mph 12 mph 52.2% 0.00 in 62 W/m2
17:29 94.1 °F 74 °F 30.08 in WSW 2.3 mph 12 mph 52.2% 0.00 in 60 W/m2
17:34 93.9 °F 73.8 °F 30.08 in SW 3.4 mph 12 mph 52.4% 0.00 in 51 W/m2
17:39 93.8 °F 74.2 °F 30.08 in SW 1 mph 10 mph 53.2% 0.00 in 65 W/m2
17:44 93.8 °F 74.8 °F 30.08 in WSW 1.4 mph 10 mph 54.2% 0.00 in 77 W/m2
17:49 93.8 °F 74.7 °F 30.08 in SW 2.4 mph 10 mph 54% 0.00 in 77 W/m2
17:54 93.8 °F 74.6 °F 30.08 in WSW 3.3 mph 10 mph 54% 0.00 in 51 W/m2
17:59 93.7 °F 74.7 °F 30.08 in SW 3 mph 10 mph 54.4% 0.00 in 58 W/m2
18:04 93.5 °F 74.5 °F 30.08 in SW 2 mph 10 mph 54.4% 0.00 in 65 W/m2
18:09 93.3 °F 74.8 °F 30.08 in WSW 1.4 mph 10 mph 55.2% 0.00 in 77 W/m2
18:14 93.2 °F 75.2 °F 30.08 in WSW 0.4 mph 10 mph 56% 0.00 in 76 W/m2
18:19 93.1 °F 76.1 °F 30.08 in WSW 2.1 mph 10 mph 57.9% 0.00 in 102 W/m2
18:24 92.9 °F 77.2 °F 30.08 in SSW 0.9 mph 10 mph 60.5% 0.00 in 100 W/m2
18:29 92.6 °F 77.4 °F 30.09 in WSW 1.5 mph 10 mph 61.5% 0.00 in 95 W/m2
18:34 92.1 °F 77.2 °F 30.09 in SSW 1.6 mph 10 mph 62% 0.00 in 44 W/m2
18:39 91.5 °F 77.2 °F 30.08 in SSW 0.8 mph 5 mph 63.1% 0.00 in 44 W/m2
18:44 91 °F 77.2 °F 30.08 in WNW 0.4 mph 5 mph 64.2% 0.00 in 33 W/m2
18:49 90.5 °F 77.2 °F 30.08 in WSW 1.3 mph 5 mph 65% 0.00 in 32 W/m2
18:54 90.1 °F 76.9 °F 30.09 in South 0.2 mph 5 mph 65.3% 0.00 in 30 W/m2
18:59 89.8 °F 77 °F 30.09 in South 1.6 mph 7 mph 66% 0.00 in 28 W/m2
19:04 89.6 °F 76.9 °F 30.09 in SSW 0.3 mph 7 mph 66.4% 0.00 in 28 W/m2
19:09 89.3 °F 76.9 °F 30.09 in SSW 0.7 mph 4 mph 67% 0.00 in 26 W/m2
19:14 89.1 °F 76.7 °F 30.09 in SSW 0.8 mph 4 mph 67% 0.00 in 25 W/m2
19:19 88.8 °F 76.6 °F 30.09 in SSW 1 mph 5 mph 67.3% 0.00 in 25 W/m2
19:24 88.5 °F 76.6 °F 30.09 in SSW 0.4 mph 6 mph 68% 0.00 in 23 W/m2
19:29 88.3 °F 76.4 °F 30.09 in SSW 0.5 mph 6 mph 68% 0.00 in 21 W/m2
19:34 88.1 °F 76.2 °F 30.09 in SW 0.8 mph 6 mph 68% 0.00 in 19 W/m2
19:39 87.9 °F 76.3 °F 30.09 in WSW 0.8 mph 10 mph 68.7% 0.00 in 18 W/m2
19:44 87.7 °F 76.2 °F 30.10 in WSW 0.9 mph 10 mph 69% 0.00 in 18 W/m2
19:49 87.4 °F 76 °F 30.10 in WSW 0.6 mph 10 mph 69% 0.00 in 16 W/m2
19:54 87.2 °F 75.8 °F 30.09 in SW 0.2 mph 10 mph 69.2% 0.00 in 12 W/m2
19:59 86.9 °F 75.8 °F 30.10 in SW 0.7 mph 10 mph 69.5% 0.00 in 11 W/m2
20:00 86.8 °F 75.8 °F 30.10 in Calm   10 mph 70% 0.00 in 9 W/m2
20:09 86.5 °F 75.6 °F 30.10 in SSW 0.4 mph 6 mph 70% 0.00 in 7 W/m2
20:14 86.3 °F 75.3 °F 30.10 in WSW 0.5 mph 6 mph 70% 0.00 in 5 W/m2
20:19 86 °F 75.1 °F 30.10 in WSW 0.1 mph 6 mph 70.1% 0.00 in 0 W/m2
20:24 85.8 °F 75.3 °F 30.10 in SW 0.4 mph 6 mph 70.8% 0.00 in 0 W/m2
20:29 85.6 °F 75.1 °F 30.09 in SW 0.3 mph 6 mph 71% 0.00 in 0 W/m2
20:34 85.3 °F 74.9 °F 30.09 in WSW 0.1 mph 6 mph 71.2% 0.00 in 0 W/m2
20:39 85.1 °F 74.9 °F 30.10 in WSW 0.1 mph 4 mph 71.6% 0.00 in 0 W/m2
20:44 84.9 °F 74.9 °F 30.10 in WSW 0.2 mph 4 mph 72% 0.00 in 0 W/m2
20:49 84.7 °F 74.9 °F 30.10 in WSW 0.2 mph 4 mph 72.6% 0.00 in 0 W/m2
20:54 84.5 °F 74.9 °F 30.10 in Calm   4 mph 73% 0.00 in 0 W/m2
20:59 84.3 °F 74.7 °F 30.10 in WSW 0.1 mph 4 mph 73% 0.00 in 0 W/m2
21:04 84.1 °F 74.8 °F 30.10 in Calm   4 mph 73.8% 0.00 in 0 W/m2
21:09 83.9 °F 74.7 °F 30.10 in Calm     74% 0.00 in 0 W/m2
21:14 83.8 °F 74.6 °F 30.10 in Calm     74% 0.00 in 0 W/m2
21:19 83.6 °F 74.4 °F 30.10 in Calm     74% 0.00 in 0 W/m2
21:24 83.4 °F 74.4 °F 30.11 in Calm     74.4% 0.00 in 0 W/m2
21:29 83.3 °F 74.5 °F 30.11 in Calm     75% 0.00 in 0 W/m2
21:34 83.1 °F 74.4 °F 30.11 in Calm     75% 0.00 in 0 W/m2
21:39 83 °F 74.3 °F 30.11 in Calm     75% 0.00 in 0 W/m2
21:44 82.9 °F 74.1 °F 30.12 in Calm     75% 0.00 in 0 W/m2
21:49 82.7 °F 74 °F 30.12 in Calm     75% 0.00 in 0 W/m2
21:54 82.6 °F 74.2 °F 30.12 in Calm     75.9% 0.00 in 0 W/m2
21:59 82.4 °F 74.1 °F 30.12 in Calm     76% 0.00 in 0 W/m2
22:04 82.3 °F 74 °F 30.12 in Calm     76% 0.00 in 0 W/m2
22:09 82.1 °F 73.8 °F 30.12 in Calm     76% 0.00 in 0 W/m2
22:14 81.9 °F 73.7 °F 30.12 in Calm     76.1% 0.00 in 0 W/m2
22:19 81.8 °F 73.9 °F 30.12 in Calm     77% 0.00 in 0 W/m2
22:24 81.6 °F 73.7 °F 30.12 in Calm     77% 0.00 in 0 W/m2
22:29 81.4 °F 73.5 °F 30.12 in Calm     77% 0.00 in 0 W/m2
22:34 81.3 °F 73.4 °F 30.12 in Calm     77% 0.00 in 0 W/m2
22:39 81.1 °F 73.6 °F 30.12 in Calm     78% 0.00 in 0 W/m2
22:44 81 °F 73.5 °F 30.12 in Calm     78% 0.00 in 0 W/m2
22:49 80.8 °F 73.3 °F 30.12 in Calm     78% 0.00 in 0 W/m2
22:54 80.7 °F 73.2 °F 30.12 in Calm     78% 0.00 in 0 W/m2
22:59 80.5 °F 73.3 °F 30.12 in Calm     78.6% 0.00 in 0 W/m2
23:04 80.4 °F 73.3 °F 30.12 in Calm     79% 0.00 in 0 W/m2
23:09 80.3 °F 73.2 °F 30.12 in Calm     79% 0.00 in 0 W/m2
23:14 80.2 °F 73.1 °F 30.12 in Calm     79% 0.00 in 0 W/m2
23:19 80 °F 73.1 °F 30.12 in Calm     79.4% 0.00 in 0 W/m2
23:24 79.9 °F 73.2 °F 30.12 in Calm     80% 0.00 in 0 W/m2
23:29 79.8 °F 73.1 °F 30.12 in Calm     80% 0.00 in 0 W/m2
23:34 79.7 °F 73 °F 30.13 in Calm     80% 0.00 in 0 W/m2
23:39 79.7 °F 72.9 °F 30.13 in Calm     80% 0.00 in 0 W/m2
23:44 79.6 °F 72.8 °F 30.13 in Calm     80% 0.00 in 0 W/m2
23:49 79.5 °F 72.8 °F 30.13 in Calm     80.2% 0.00 in 0 W/m2
23:54 79.4 °F 73 °F 30.13 in Calm     81% 0.00 in 0 W/m2
23:59 79.3 °F 72.9 °F 30.13 in Calm     81% 0.00 in 0 W/m2
Hartford County Weather
Compliments of Weather Underground - 2 mb